CheckWX is a tool to help pilots better visualize weather data.  It is not intended as a substitute for an official pre-flight weather briefing.

06:58:32 UTC

DTTZ TAF
Tozeur Nefta International Airport
Tozeur, Tunisia
TAF DTTZ 210500Z 2106/2206 09010KT 9999 FEW030 BECMG 2116/2118 10017KT

Sep-21@
06:00 UTC

Sep-21 @ 06:00 UTC

Sep-21@
16:00 UTC

Sep-21 @ 16:00 UTC

TAF DTTZ 210500Z 2106/2206 09010KT 9999 FEW030
Wind
  • 090° at 10 KTS
Cloud Levels
  • Few at 3,000' AGL

Sep-21@
16:00 UTC

Sep-21 @ 16:00 UTC

Sep-22@
06:00 UTC

Sep-22 @ 06:00 UTC

BECMG 2116/2118 10017KT

Becoming

Becoming Conditions expected by Sat, Sep 21, 2019 @ 18:00 UTC

Wind
  • 100° at 17 KTS
Cloud Levels
  • Few at 3,000' AGL